Daruvar, Croatia

4:46 PM CEST on August 28, 2015 (GMT +0200)
River Drava | | Change Station
CLOSE
Current Station
Personal Weather Station
Location: Virovitica, VIROVITIčKO-PODRAVSKA žUPANIJA
Elevation: 400 ft
Nearby Weather Stations

Elev 400 ft 45.83 °N, 17.39 °E | Updated 5 seconds ago

Clear
Clear
87.4 °F
Feels Like 88 °F
N
1.1
Wind Variable Wind from WNW
Gusts 1.1 mph

Today
High -- | Low -- °F
--% Chance of Precip.
Yesterday
High -- | Low -- °F
Precip. -- in
6:06 AM 7:37 PM
Waxing Gibbous, 98% visible
Pressure 30.06 in
Visibility -9999.0 miles
Clouds
Heat Index 88 °F
Dew Point 62 °F
Humidity 43%
Rainfall 0.00 in
Snow Depth Not available.
UV Not available.
Pollen Not available.
Air Quality Not available.
Flu Activity Not available.
METAR LQBK 281430Z 35008KT CAVOK 33/12 Q1018 NOSIG
Pressure 30.06 in
Visibility -9999.0 miles
Clouds
Heat Index 88 °F
Dew Point 62 °F
Humidity 43%
Rainfall 0.00 in
Snow Depth Not available.
UV Not available.
Pollen Not available.
Air Quality Not available.
Flu Activity Not available.
METAR LQBK 281430Z 35008KT CAVOK 33/12 Q1018 NOSIG

10-Day Weather Forecast

×

Almanac

Astronomy

Aug. 28, 2015 Rise Set
Actual Time
Civil Twilight
Nautical Twilight
Astronomical Twilight
Moon
Length of Visible Light
Length of Day
Tomorrow will be .
, % of the Moon is Illuminated

Today's Extremes

Country Highs Country Lows

Community

WunderPhotos

Upload Photos

1,850,387 photos uploaded!

WunderBlogs® & News

Nearby

Air Quality

  Air Quality AQ Index Pollutant
Not available.

Snow Depth

Station Depth Elevation

Earthquake Activity

City Distance Mag. Time & Date
Minimum magnitude displayed is 2.5.

Coastal Water Temperatures

Place Temperature

Stations

Nearby Weather Stations

Station Location Temp. Windchill Dew Point Humidity Wind Precip. Elev Updated Type